createdAt,value
2024-05-09T00:00:39.496Z,99.99
2024-05-09T00:01:35.920Z,99.99
2024-05-09T00:02:35.914Z,99.99
2024-05-09T00:03:35.865Z,99.99
2024-05-09T00:04:35.826Z,99.99
2024-05-09T00:05:36.278Z,99.99
2024-05-09T00:06:35.734Z,99.99
2024-05-09T00:07:35.704Z,99.99
2024-05-09T00:08:35.801Z,99.99
2024-05-09T00:09:35.653Z,99.99
2024-05-09T00:10:38.106Z,99.99
2024-05-09T00:11:35.625Z,99.99
2024-05-09T00:12:35.592Z,99.99
2024-05-09T00:13:35.533Z,99.99
2024-05-09T00:14:35.584Z,99.99
2024-05-09T00:15:36.174Z,99.99
2024-05-09T00:16:35.457Z,99.99
2024-05-09T00:17:35.537Z,99.99
2024-05-09T00:18:35.478Z,99.99
2024-05-09T00:19:35.525Z,99.99
2024-05-09T00:20:39.106Z,99.99
2024-05-09T00:21:35.320Z,99.99
2024-05-09T00:22:35.291Z,99.99
2024-05-09T00:23:35.377Z,99.99
2024-05-09T00:24:35.232Z,99.99
2024-05-09T00:25:35.715Z,99.99
2024-05-09T00:26:35.227Z,99.99
2024-05-09T00:27:35.146Z,99.99
2024-05-09T00:28:35.134Z,99.99
2024-05-09T00:29:35.149Z,99.99
2024-05-09T00:30:36.873Z,99.99
2024-05-09T00:31:35.036Z,99.99
2024-05-09T00:32:35.216Z,99.99
2024-05-09T00:33:35.162Z,99.99
2024-05-09T00:34:34.983Z,99.99
2024-05-09T00:35:35.018Z,99.99
2024-05-09T00:36:34.890Z,99.99
2024-05-09T00:37:34.864Z,99.99
2024-05-09T00:38:34.871Z,99.99
2024-05-09T00:39:34.811Z,99.99
2024-05-09T00:40:39.446Z,99.99
2024-05-09T00:41:34.889Z,99.99
2024-05-09T00:42:34.723Z,99.99
2024-05-09T00:43:34.691Z,99.99
2024-05-09T00:44:34.768Z,99.99
2024-05-09T00:45:34.647Z,99.99
2024-05-09T00:46:34.613Z,99.99
2024-05-09T00:47:34.811Z,99.99
2024-05-09T00:48:34.738Z,99.99
2024-05-09T00:49:34.774Z,99.99
2024-05-09T00:50:36.890Z,99.99
2024-05-09T00:51:34.469Z,99.99
2024-05-09T00:52:34.438Z,99.99
2024-05-09T00:53:34.606Z,99.99
2024-05-09T00:54:34.381Z,99.99
2024-05-09T00:55:34.367Z,99.99
2024-05-09T00:56:34.348Z,99.99
2024-05-09T00:57:34.307Z,99.99
2024-05-09T00:58:34.275Z,99.99
2024-05-09T00:59:34.331Z,99.99
2024-05-09T01:00:38.739Z,99.99
2024-05-09T01:01:34.326Z,99.99
2024-05-09T01:02:34.254Z,99.99
2024-05-09T01:03:34.299Z,99.99
2024-05-09T01:04:34.137Z,99.99
2024-05-09T01:05:34.257Z,99.99
2024-05-09T01:06:34.050Z,99.99
2024-05-09T01:07:34.028Z,99.99
2024-05-09T01:08:34.205Z,99.99
2024-05-09T01:09:33.966Z,99.99
2024-05-09T01:10:35.480Z,99.99
2024-05-09T01:11:34.021Z,99.99
2024-05-09T01:12:33.991Z,99.99
2024-05-09T01:13:33.865Z,99.99
2024-05-09T01:14:34.015Z,99.99
2024-05-09T01:15:33.825Z,99.99
2024-05-09T01:16:33.774Z,99.99
2024-05-09T01:17:34.009Z,99.99
2024-05-09T01:18:33.817Z,99.99
2024-05-09T01:19:33.788Z,99.99
2024-05-09T01:20:41.061Z,99.99
2024-05-09T01:21:33.636Z,99.99
2024-05-09T01:22:33.599Z,99.99
2024-05-09T01:23:33.762Z,99.99
2024-05-09T01:24:33.542Z,99.99
2024-05-09T01:25:33.527Z,99.99
2024-05-09T01:26:33.585Z,99.99
2024-05-09T01:27:33.457Z,99.99
2024-05-09T01:28:33.444Z,99.99
2024-05-09T01:29:33.473Z,99.99
2024-05-09T01:30:35.880Z,99.99
2024-05-09T01:31:33.372Z,99.99
2024-05-09T01:32:33.474Z,99.99
2024-05-09T01:33:33.759Z,99.99
2024-05-09T01:34:33.263Z,99.99
2024-05-09T01:35:33.304Z,99.99
2024-05-09T01:36:33.208Z,99.99
2024-05-09T01:37:33.178Z,99.99
2024-05-09T01:38:33.337Z,99.99
2024-05-09T01:39:33.123Z,99.99
2024-05-09T01:40:37.750Z,99.99
2024-05-09T01:41:33.096Z,99.99
2024-05-09T01:42:33.038Z,99.99
2024-05-09T01:43:33.019Z,99.99
2024-05-09T01:44:33.030Z,99.99
2024-05-09T01:45:33.071Z,99.99
2024-05-09T01:46:32.943Z,99.99
2024-05-09T01:47:33.133Z,99.99
2024-05-09T01:48:32.922Z,99.99
2024-05-09T01:49:32.909Z,99.99
2024-05-09T01:50:38.972Z,99.99
2024-05-09T01:51:32.800Z,99.99
2024-05-09T01:52:32.759Z,99.99
2024-05-09T01:53:32.826Z,99.99
2024-05-09T01:54:32.706Z,99.99
2024-05-09T01:55:32.676Z,99.99
2024-05-09T01:56:32.815Z,99.99
2024-05-09T01:57:32.621Z,99.99
2024-05-09T01:58:32.598Z,99.99
2024-05-09T01:59:32.650Z,99.99
2024-05-09T02:00:38.582Z,99.99
2024-05-09T02:01:55.397Z,99.99
2024-05-09T02:02:32.590Z,99.99
2024-05-09T02:03:32.627Z,99.99
2024-05-09T02:04:32.555Z,99.99
2024-05-09T02:05:32.560Z,99.99
2024-05-09T02:06:32.367Z,99.99
2024-05-09T02:07:32.342Z,99.99
2024-05-09T02:08:32.467Z,99.99
2024-05-09T02:09:32.282Z,99.99
2024-05-09T02:10:33.298Z,99.99
2024-05-09T02:11:32.312Z,99.99
2024-05-09T02:12:32.359Z,99.99
2024-05-09T02:13:32.176Z,99.99
2024-05-09T02:14:32.180Z,99.99
2024-05-09T02:15:32.119Z,99.99
2024-05-09T02:16:32.087Z,99.99
2024-05-09T02:17:32.193Z,99.99
2024-05-09T02:18:32.077Z,99.99
2024-05-09T02:19:32.150Z,99.99
2024-05-09T02:20:36.234Z,99.99
2024-05-09T02:21:31.953Z,99.99
2024-05-09T02:22:31.921Z,99.99
2024-05-09T02:23:32.004Z,99.99
2024-05-09T02:24:31.864Z,99.99
2024-05-09T02:25:31.936Z,99.99
2024-05-09T02:26:31.870Z,99.99
2024-05-09T02:27:31.778Z,99.99
2024-05-09T02:28:31.754Z,99.99
2024-05-09T02:29:31.783Z,99.99
2024-05-09T02:30:39.084Z,99.99
2024-05-09T02:31:31.670Z,99.99
2024-05-09T02:32:31.916Z,99.99
2024-05-09T02:33:31.861Z,99.99
2024-05-09T02:34:31.626Z,99.99
2024-05-09T02:35:31.634Z,99.99
2024-05-09T02:36:31.546Z,99.99
2024-05-09T02:37:31.500Z,99.99
2024-05-09T02:38:31.601Z,99.99
2024-05-09T02:39:31.456Z,99.99
2024-05-09T02:40:37.512Z,99.99
2024-05-09T02:41:31.499Z,99.99
2024-05-09T02:42:31.363Z,99.99
2024-05-09T02:43:31.336Z,99.99
2024-05-09T02:44:31.368Z,99.99
2024-05-09T02:45:31.310Z,99.99
2024-05-09T02:46:31.259Z,99.99
2024-05-09T02:47:31.337Z,99.99
2024-05-09T02:48:31.307Z,99.99
2024-05-09T02:49:31.253Z,99.99
2024-05-09T02:50:37.694Z,99.99
2024-05-09T02:51:31.109Z,99.99
2024-05-09T02:52:31.110Z,99.99
2024-05-09T02:53:31.215Z,99.99
2024-05-09T02:54:31.030Z,99.99
2024-05-09T02:55:31.089Z,99.99
2024-05-09T02:56:31.066Z,99.99
2024-05-09T02:57:30.946Z,99.99
2024-05-09T02:58:30.922Z,99.99
2024-05-09T02:59:30.971Z,99.99
2024-05-09T03:00:38.065Z,99.99
2024-05-09T03:01:30.865Z,99.99
2024-05-09T03:02:30.985Z,99.99
2024-05-09T03:03:31.506Z,99.99
2024-05-09T03:04:30.978Z,99.99
2024-05-09T03:05:30.854Z,99.99
2024-05-09T03:06:30.709Z,99.99
2024-05-09T03:07:30.692Z,99.99
2024-05-09T03:08:30.770Z,99.99
2024-05-09T03:09:30.622Z,99.99
2024-05-09T03:10:35.695Z,99.99
2024-05-09T03:11:30.693Z,99.99
2024-05-09T03:12:30.611Z,99.99
2024-05-09T03:13:30.500Z,99.99
2024-05-09T03:14:30.612Z,99.99
2024-05-09T03:15:30.445Z,99.99
2024-05-09T03:16:30.420Z,99.99
2024-05-09T03:17:30.671Z,99.99
2024-05-09T03:18:30.471Z,99.99
2024-05-09T03:19:30.446Z,99.99
2024-05-09T03:20:33.649Z,99.99
2024-05-09T03:21:30.295Z,99.99
2024-05-09T03:22:30.251Z,99.99
2024-05-09T03:23:30.292Z,99.99
2024-05-09T03:24:30.213Z,99.99
2024-05-09T03:25:30.180Z,99.99
2024-05-09T03:26:30.187Z,99.99
2024-05-09T03:27:30.115Z,99.99
2024-05-09T03:28:30.098Z,99.99
2024-05-09T03:29:30.210Z,99.99
2024-05-09T03:30:38.798Z,99.99
2024-05-09T03:31:29.998Z,99.99
2024-05-09T03:32:30.105Z,99.99
2024-05-09T03:33:30.261Z,99.99
2024-05-09T03:34:29.951Z,99.99
2024-05-09T03:35:30.007Z,99.99
2024-05-09T03:36:29.860Z,99.99
2024-05-09T03:37:29.828Z,99.99
2024-05-09T03:38:29.844Z,99.99
2024-05-09T03:39:29.822Z,99.99
2024-05-09T03:40:31.097Z,99.99
2024-05-09T03:41:29.873Z,99.99
2024-05-09T03:42:29.712Z,99.99
2024-05-09T03:43:29.697Z,99.99
2024-05-09T03:44:29.665Z,99.99
2024-05-09T03:45:29.621Z,99.99
2024-05-09T03:46:29.582Z,99.99
2024-05-09T03:47:29.717Z,99.99
2024-05-09T03:48:29.628Z,99.99
2024-05-09T03:49:29.597Z,99.99
2024-05-09T03:50:33.790Z,99.99
2024-05-09T03:51:29.441Z,99.99
2024-05-09T03:52:29.414Z,99.99
2024-05-09T03:53:29.435Z,99.99
2024-05-09T03:54:29.359Z,99.99
2024-05-09T03:55:29.326Z,99.99
2024-05-09T03:56:29.451Z,99.99
2024-05-09T03:57:29.275Z,99.99
2024-05-09T03:58:29.254Z,99.99
2024-05-09T03:59:29.295Z,99.99
2024-05-09T04:00:35.330Z,99.99
2024-05-09T04:01:29.227Z,99.99
2024-05-09T04:02:29.244Z,99.99
2024-05-09T04:03:29.225Z,99.99
2024-05-09T04:04:29.184Z,99.99
2024-05-09T04:05:29.094Z,99.99
2024-05-09T04:06:29.026Z,99.99
2024-05-09T04:07:28.995Z,99.99
2024-05-09T04:08:29.062Z,99.99
2024-05-09T04:09:28.951Z,99.99
2024-05-09T04:10:33.327Z,99.99
2024-05-09T04:11:28.935Z,99.99
2024-05-09T04:12:28.922Z,99.99
2024-05-09T04:13:28.824Z,99.99
2024-05-09T04:14:28.867Z,99.99
2024-05-09T04:15:28.788Z,99.99
2024-05-09T04:16:28.749Z,99.99
2024-05-09T04:17:28.982Z,99.99
2024-05-09T04:18:28.890Z,99.99
2024-05-09T04:19:28.869Z,99.99
2024-05-09T04:20:36.636Z,99.99
2024-05-09T04:21:28.603Z,99.99
2024-05-09T04:22:28.578Z,99.99
2024-05-09T04:23:28.689Z,99.99
2024-05-09T04:24:28.524Z,99.99
2024-05-09T04:25:28.493Z,99.99
2024-05-09T04:26:28.550Z,99.99
2024-05-09T04:27:28.452Z,99.99
2024-05-09T04:28:28.451Z,99.99
2024-05-09T04:29:28.646Z,99.99
2024-05-09T04:30:35.007Z,99.99
2024-05-09T04:31:28.329Z,99.99
2024-05-09T04:32:28.503Z,99.99
2024-05-09T04:33:28.452Z,99.99
2024-05-09T04:34:28.428Z,99.99
2024-05-09T04:35:28.433Z,99.99
2024-05-09T04:36:28.188Z,99.99
2024-05-09T04:37:28.160Z,99.99
2024-05-09T04:38:28.179Z,99.99
2024-05-09T04:39:28.122Z,99.99
2024-05-09T04:40:33.377Z,99.99
2024-05-09T04:41:28.127Z,99.99
2024-05-09T04:42:28.017Z,99.99
2024-05-09T04:43:27.989Z,99.99
2024-05-09T04:44:28.123Z,99.99
2024-05-09T04:45:27.940Z,99.99
2024-05-09T04:46:27.918Z,99.99
2024-05-09T04:47:28.095Z,99.99
2024-05-09T04:48:28.060Z,99.99
2024-05-09T04:49:27.876Z,99.99
2024-05-09T04:50:35.880Z,99.99
2024-05-09T04:51:27.768Z,99.99
2024-05-09T04:52:27.747Z,99.99
2024-05-09T04:53:27.779Z,99.99
2024-05-09T04:54:34.252Z,99.99
2024-05-09T04:55:27.657Z,99.99
2024-05-09T04:56:27.724Z,99.99
2024-05-09T04:57:27.620Z,99.99
2024-05-09T04:58:27.575Z,99.99
2024-05-09T04:59:27.641Z,99.99
2024-05-09T05:00:34.998Z,99.99
2024-05-09T05:01:27.565Z,99.99
2024-05-09T05:02:27.584Z,99.99
2024-05-09T05:03:27.732Z,99.99
2024-05-09T05:04:27.449Z,99.99
2024-05-09T05:05:27.442Z,99.99
2024-05-09T05:06:27.369Z,99.99
2024-05-09T05:07:27.324Z,99.99
2024-05-09T05:08:27.343Z,99.99
2024-05-09T05:09:27.267Z,99.99
2024-05-09T05:10:33.627Z,99.99
2024-05-09T05:11:27.276Z,99.99
2024-05-09T05:12:27.380Z,99.99
2024-05-09T05:13:27.159Z,99.99
2024-05-09T05:14:27.463Z,99.99
2024-05-09T05:15:27.118Z,99.99
2024-05-09T05:16:27.088Z,99.99
2024-05-09T05:17:27.244Z,99.99
2024-05-09T05:18:27.704Z,99.99
2024-05-09T05:19:27.166Z,99.99
2024-05-09T05:20:32.911Z,99.99
2024-05-09T05:21:27.160Z,99.99
2024-05-09T05:22:26.915Z,99.99
2024-05-09T05:23:27.020Z,99.99
2024-05-09T05:24:26.856Z,99.99
2024-05-09T05:25:26.825Z,99.99
2024-05-09T05:26:26.851Z,99.99
2024-05-09T05:27:26.770Z,99.99
2024-05-09T05:28:26.741Z,99.99
2024-05-09T05:29:26.750Z,99.99
2024-05-09T05:30:32.492Z,99.99
2024-05-09T05:31:26.676Z,99.99
2024-05-09T05:32:26.875Z,99.99
2024-05-09T05:33:26.873Z,99.99
2024-05-09T05:34:26.580Z,99.99
2024-05-09T05:35:26.871Z,99.99
2024-05-09T05:36:26.521Z,99.99
2024-05-09T05:37:26.498Z,99.99
2024-05-09T05:38:28.361Z,99.99
2024-05-09T05:39:26.443Z,99.99
2024-05-09T05:40:33.289Z,99.99
2024-05-09T05:41:26.420Z,99.99
2024-05-09T05:42:26.357Z,99.99
2024-05-09T05:43:26.362Z,99.99
2024-05-09T05:44:26.342Z,99.99
2024-05-09T05:45:26.271Z,99.99
2024-05-09T05:46:26.245Z,99.99
2024-05-09T05:47:26.335Z,99.99
2024-05-09T05:48:26.408Z,99.99
2024-05-09T05:49:26.316Z,99.99
2024-05-09T05:50:32.560Z,99.99
2024-05-09T05:51:26.136Z,99.99
2024-05-09T05:52:26.080Z,99.99
2024-05-09T05:53:26.090Z,99.99
2024-05-09T05:54:26.032Z,99.99
2024-05-09T05:55:26.011Z,99.99
2024-05-09T05:56:26.032Z,99.99
2024-05-09T05:57:25.944Z,99.99
2024-05-09T05:58:25.919Z,99.99
2024-05-09T05:59:25.945Z,99.99
2024-05-09T06:00:33.993Z,99.99
2024-05-09T06:01:25.843Z,99.99
2024-05-09T06:02:25.993Z,99.99
2024-05-09T06:03:25.808Z,99.99
2024-05-09T06:04:25.861Z,99.99
2024-05-09T06:05:27.662Z,99.99
2024-05-09T06:06:25.700Z,99.99
2024-05-09T06:07:25.674Z,99.99
2024-05-09T06:08:28.020Z,99.99
2024-05-09T06:09:25.616Z,99.99
2024-05-09T06:10:30.207Z,99.99
2024-05-09T06:11:25.659Z,99.99
2024-05-09T06:12:25.830Z,99.99
2024-05-09T06:13:25.502Z,99.99
2024-05-09T06:14:25.511Z,99.99
2024-05-09T06:15:25.453Z,99.99
2024-05-09T06:16:25.425Z,99.99
2024-05-09T06:17:25.511Z,99.99
2024-05-09T06:18:25.566Z,99.99
2024-05-09T06:19:25.428Z,99.99
2024-05-09T06:20:34.312Z,99.99
2024-05-09T06:21:25.321Z,99.99
2024-05-09T06:22:25.259Z,99.99
2024-05-09T06:23:25.261Z,99.99
2024-05-09T06:24:25.210Z,99.99
2024-05-09T06:25:25.177Z,99.99
2024-05-09T06:26:25.234Z,99.99
2024-05-09T06:27:25.127Z,99.99
2024-05-09T06:28:25.093Z,99.99
2024-05-09T06:29:25.156Z,99.99
2024-05-09T06:30:30.721Z,99.99
2024-05-09T06:31:25.054Z,99.99
2024-05-09T06:32:25.136Z,99.99
2024-05-09T06:33:25.260Z,99.99
2024-05-09T06:34:25.092Z,99.99
2024-05-09T06:35:24.947Z,99.99
2024-05-09T06:36:24.919Z,99.99
2024-05-09T06:37:24.856Z,99.99
2024-05-09T06:38:24.899Z,99.99
2024-05-09T06:39:24.808Z,99.99
2024-05-09T06:40:29.463Z,99.99
2024-05-09T06:41:24.843Z,99.99
2024-05-09T06:42:24.720Z,99.99
2024-05-09T06:43:24.701Z,99.99
2024-05-09T06:45:24.641Z,99.99
2024-05-09T06:46:24.615Z,99.99
2024-05-09T06:47:24.798Z,99.99
2024-05-09T06:48:24.727Z,99.99
2024-05-09T06:49:24.637Z,99.99
2024-05-09T06:50:28.190Z,99.99
2024-05-09T06:51:24.544Z,99.99
2024-05-09T06:52:24.477Z,99.99
2024-05-09T06:53:24.607Z,99.99
2024-05-09T06:54:24.407Z,99.99
2024-05-09T06:55:24.391Z,99.99
2024-05-09T06:56:24.412Z,99.99
2024-05-09T06:57:24.331Z,99.99
2024-05-09T06:58:24.312Z,99.99
2024-05-09T06:59:24.309Z,99.99
2024-05-09T07:00:30.861Z,99.99
2024-05-09T07:01:24.281Z,99.99
2024-05-09T07:02:24.270Z,99.99
2024-05-09T07:03:24.342Z,98.91
2024-05-09T07:04:24.273Z,98.96
2024-05-09T07:05:24.249Z,99.99
2024-05-09T07:06:24.093Z,99.99
2024-05-09T07:07:24.061Z,99.99
2024-05-09T07:08:24.137Z,99.99
2024-05-09T07:09:24.006Z,99.99
2024-05-09T07:10:29.149Z,99.99
2024-05-09T07:11:24.042Z,99.99
2024-05-09T07:12:23.988Z,99.99
2024-05-09T07:13:23.920Z,99.99
2024-05-09T07:14:24.022Z,99.99
2024-05-09T07:15:23.861Z,99.99
2024-05-09T07:16:23.827Z,99.99
2024-05-09T07:17:23.923Z,99.99
2024-05-09T07:18:23.951Z,99.99
2024-05-09T07:19:23.881Z,99.99
2024-05-09T07:20:32.178Z,99.99
2024-05-09T07:21:23.754Z,99.99
2024-05-09T07:22:23.672Z,99.99
2024-05-09T07:23:23.670Z,99.99
2024-05-09T07:24:23.634Z,99.99
2024-05-09T07:25:23.590Z,99.99
2024-05-09T07:26:23.604Z,99.99
2024-05-09T07:27:23.542Z,99.99
2024-05-09T07:28:23.517Z,99.99
2024-05-09T07:29:23.632Z,99.99
2024-05-09T07:30:30.563Z,99.99
2024-05-09T07:31:23.448Z,99.32
2024-05-09T07:32:23.527Z,98.05
2024-05-09T07:33:24.546Z,99.06
2024-05-09T07:34:23.617Z,99.37
2024-05-09T07:35:23.410Z,99.99
2024-05-09T07:36:23.300Z,98.00
2024-05-09T07:37:23.270Z,99.99
2024-05-09T07:38:23.346Z,98.86
2024-05-09T07:39:23.220Z,99.68
2024-05-09T07:40:31.809Z,98.86
2024-05-09T07:41:23.218Z,97.14
2024-05-09T07:42:23.145Z,98.16
2024-05-09T07:43:23.115Z,97.65
2024-05-09T07:44:23.129Z,97.49
2024-05-09T07:45:40.562Z,98.10
2024-05-09T07:47:17.280Z,99.99
2024-05-09T07:48:32.131Z,98.71
2024-05-09T07:53:30.202Z,97.19
2024-05-09T07:53:39.508Z,98.91
2024-05-09T07:54:22.951Z,98.61
2024-05-09T07:55:22.954Z,97.75
2024-05-09T07:56:24.203Z,96.58
2024-05-09T07:57:22.775Z,97.39
2024-05-09T07:58:22.729Z,96.72
2024-05-09T07:59:22.701Z,97.80
2024-05-09T08:00:29.723Z,97.89
2024-05-09T08:01:22.774Z,97.75
2024-05-09T08:02:22.834Z,97.30
2024-05-09T08:03:22.697Z,96.28
2024-05-09T08:04:23.687Z,96.08
2024-05-09T08:05:22.740Z,94.25
2024-05-09T08:06:22.526Z,94.09
2024-05-09T08:07:22.575Z,95.21
2024-05-09T08:08:22.508Z,96.18
2024-05-09T08:09:22.451Z,95.57
2024-05-09T08:10:28.434Z,93.33
2024-05-09T08:11:22.509Z,94.25
2024-05-09T08:12:22.378Z,94.56
2024-05-09T08:13:22.412Z,94.10
2024-05-09T08:14:22.313Z,94.21
2024-05-09T08:15:22.284Z,93.70
2024-05-09T08:16:22.470Z,92.54
2024-05-09T08:17:22.304Z,92.68
2024-05-09T08:18:22.282Z,95.22
2024-05-09T08:19:22.224Z,93.29
2024-05-09T08:20:30.307Z,94.06
2024-05-09T08:21:22.126Z,92.74
2024-05-09T08:22:22.096Z,93.05
2024-05-09T08:23:22.076Z,92.84
2024-05-09T08:24:22.047Z,93.25
2024-05-09T08:25:22.061Z,95.48
2024-05-09T08:26:21.994Z,95.38
2024-05-09T08:27:21.966Z,92.84
2024-05-09T08:28:22.173Z,92.64
2024-05-09T08:29:21.917Z,92.38
2024-05-09T08:30:29.576Z,94.45
2024-05-09T08:31:22.032Z,95.53
2024-05-09T08:32:21.880Z,95.53
2024-05-09T08:33:21.900Z,96.34
2024-05-09T08:34:21.847Z,95.07
2024-05-09T08:35:21.771Z,94.87
2024-05-09T08:36:21.736Z,94.41
2024-05-09T08:37:24.687Z,95.32
2024-05-09T08:38:21.700Z,93.29
2024-05-09T08:39:21.661Z,95.17
2024-05-09T08:40:30.563Z,96.75
2024-05-09T08:41:21.614Z,96.54
2024-05-09T08:42:21.582Z,94.25
2024-05-09T08:43:21.659Z,95.02
2024-05-09T08:44:21.559Z,95.42
2024-05-09T08:45:21.506Z,95.63
2024-05-09T08:46:21.575Z,95.58
2024-05-09T08:47:21.541Z,94.53
2024-05-09T08:48:21.521Z,96.00
2024-05-09T08:49:21.434Z,92.65
2024-05-09T08:50:31.476Z,90.16
2024-05-09T08:51:21.352Z,91.99
2024-05-09T08:52:21.330Z,92.60
2024-05-09T08:53:21.300Z,92.94
2024-05-09T08:54:21.277Z,92.48
2024-05-09T08:55:21.264Z,92.54
2024-05-09T08:56:21.233Z,94.37
2024-05-09T08:57:21.205Z,93.21
2024-05-09T08:58:21.290Z,94.73
2024-05-09T08:59:21.147Z,92.35
2024-05-09T09:00:29.620Z,92.35
2024-05-09T09:01:21.199Z,92.45
2024-05-09T09:02:21.589Z,90.83
2024-05-09T09:03:21.098Z,92.25
2024-05-09T09:04:21.138Z,90.42
2024-05-09T09:05:21.124Z,89.96
2024-05-09T09:06:20.985Z,91.17
2024-05-09T09:07:20.974Z,90.36
2024-05-09T09:08:20.919Z,92.09
2024-05-09T09:09:20.896Z,91.52
2024-05-09T09:10:29.181Z,92.03
2024-05-09T09:11:20.878Z,92.68
2024-05-09T09:12:20.824Z,94.61
2024-05-09T09:13:20.842Z,94.26
2024-05-09T09:14:20.767Z,94.77
2024-05-09T09:15:20.744Z,94.17
2024-05-09T09:16:20.917Z,92.68
2024-05-09T09:17:20.713Z,91.67
2024-05-09T09:18:20.875Z,91.26
2024-05-09T09:19:20.834Z,91.67
2024-05-09T09:20:26.416Z,92.68
2024-05-09T09:21:20.596Z,93.19
2024-05-09T09:22:20.608Z,91.83
2024-05-09T09:23:20.565Z,91.63
2024-05-09T09:24:20.514Z,91.52
2024-05-09T09:25:20.491Z,91.28
2024-05-09T09:26:20.468Z,91.28
2024-05-09T09:27:20.438Z,90.88
2024-05-09T09:28:20.446Z,91.28
2024-05-09T09:29:20.384Z,92.19
2024-05-09T09:30:31.796Z,92.35
2024-05-09T09:31:20.367Z,90.83
2024-05-09T09:32:20.345Z,90.42
2024-05-09T09:33:20.524Z,90.16
2024-05-09T09:34:20.438Z,91.54
2024-05-09T09:35:20.249Z,90.99
2024-05-09T09:36:20.207Z,91.55
2024-05-09T09:37:20.198Z,90.80
2024-05-09T09:38:20.160Z,89.24
2024-05-09T09:39:20.134Z,86.35
2024-05-09T09:40:22.337Z,87.30
2024-05-09T09:41:20.083Z,87.91
2024-05-09T09:42:20.060Z,88.11
2024-05-09T09:43:20.168Z,88.72
2024-05-09T09:44:20.012Z,87.91
2024-05-09T09:45:19.982Z,88.31
2024-05-09T09:46:20.028Z,89.18
2024-05-09T09:47:19.987Z,90.09
2024-05-09T09:48:20.064Z,90.30
2024-05-09T09:49:19.969Z,87.52
2024-05-09T09:50:27.092Z,86.41
2024-05-09T09:51:19.856Z,87.02
2024-05-09T09:52:19.880Z,88.13
2024-05-09T09:53:19.870Z,86.82
2024-05-09T09:54:19.779Z,86.71
2024-05-09T09:55:19.778Z,85.70
2024-05-09T09:56:19.713Z,85.39
2024-05-09T09:57:19.687Z,86.00
2024-05-09T09:58:19.793Z,84.79
2024-05-09T09:59:19.642Z,86.41
2024-05-09T10:00:24.635Z,86.98
2024-05-09T10:01:19.684Z,84.61
2024-05-09T10:02:19.972Z,85.48
2024-05-09T10:03:19.737Z,84.57
2024-05-09T10:04:19.854Z,83.92
2024-05-09T10:05:19.603Z,84.37
2024-05-09T10:06:19.470Z,84.57
2024-05-09T10:07:19.516Z,80.93
2024-05-09T10:08:19.423Z,82.28
2024-05-09T10:09:19.399Z,83.96
2024-05-09T10:10:26.970Z,82.45
2024-05-09T10:11:19.414Z,79.88
2024-05-09T10:12:19.359Z,81.60
2024-05-09T10:13:19.450Z,80.29
2024-05-09T10:14:19.275Z,81.68
2024-05-09T10:15:19.260Z,82.42
2024-05-09T10:16:19.323Z,82.93
2024-05-09T10:17:19.245Z,84.61
2024-05-09T10:18:19.426Z,84.27
2024-05-09T10:19:19.255Z,81.68
2024-05-09T10:20:22.177Z,82.18
2024-05-09T10:21:19.113Z,82.45
2024-05-09T10:22:19.182Z,82.28
2024-05-09T10:23:19.074Z,83.09
2024-05-09T10:24:19.045Z,83.46
2024-05-09T10:25:19.065Z,81.40
2024-05-09T10:26:19.004Z,80.22
2024-05-09T10:27:18.977Z,81.54
2024-05-09T10:28:19.064Z,81.13
2024-05-09T10:29:18.944Z,80.12
2024-05-09T10:30:25.952Z,81.40
2024-05-09T10:31:18.955Z,80.99
2024-05-09T10:32:19.056Z,80.96
2024-05-09T10:33:19.015Z,82.33
2024-05-09T10:34:19.198Z,79.30
2024-05-09T10:35:18.789Z,78.59
2024-05-09T10:36:18.777Z,79.73
2024-05-09T10:37:18.750Z,78.63
2024-05-09T10:38:18.727Z,77.92
2024-05-09T10:39:18.691Z,77.89
2024-05-09T10:40:25.855Z,78.19
2024-05-09T10:41:18.694Z,78.47
2024-05-09T10:42:18.619Z,78.81
2024-05-09T10:43:18.788Z,80.16
2024-05-09T10:44:18.653Z,81.65
2024-05-09T10:45:18.569Z,81.69
2024-05-09T10:46:18.752Z,84.19
2024-05-09T10:47:18.570Z,82.12
2024-05-09T10:48:18.595Z,82.62
2024-05-09T10:49:18.600Z,83.19
2024-05-09T10:50:25.509Z,84.51
2024-05-09T10:51:18.410Z,82.55
2024-05-09T10:52:18.475Z,83.15
2024-05-09T10:53:18.370Z,84.71
2024-05-09T10:54:18.344Z,82.79
2024-05-09T10:55:18.485Z,81.71
2024-05-09T10:56:18.301Z,84.71
2024-05-09T10:57:18.267Z,83.76
2024-05-09T10:58:18.323Z,84.53
2024-05-09T10:59:18.221Z,81.30
2024-05-09T11:00:27.312Z,81.16
2024-05-09T11:01:18.262Z,80.01
2024-05-09T11:02:18.240Z,79.99
2024-05-09T11:03:18.163Z,79.99
2024-05-09T11:04:18.224Z,81.26
2024-05-09T11:05:18.162Z,81.04
2024-05-09T11:06:18.056Z,77.55
2024-05-09T11:07:18.128Z,78.16
2024-05-09T11:08:18.020Z,79.74
2024-05-09T11:09:17.991Z,81.50
2024-05-09T11:10:24.843Z,80.92
2024-05-09T11:11:17.972Z,80.07
2024-05-09T11:12:19.986Z,78.08
2024-05-09T11:13:17.930Z,76.14
2024-05-09T11:14:17.876Z,75.59
2024-05-09T11:15:17.879Z,74.62
2024-05-09T11:16:17.908Z,74.46
2024-05-09T11:17:17.893Z,76.34
2024-05-09T11:18:18.830Z,76.58
2024-05-09T11:19:17.885Z,77.93
2024-05-09T11:20:26.413Z,79.21
2024-05-09T11:21:17.719Z,79.16
2024-05-09T11:22:17.890Z,79.06
2024-05-09T11:23:17.672Z,75.23
2024-05-09T11:24:17.653Z,77.82
2024-05-09T11:25:17.734Z,76.71
2024-05-09T11:26:17.602Z,75.13
2024-05-09T11:27:17.578Z,74.90
2024-05-09T11:28:17.757Z,74.90
2024-05-09T11:29:19.486Z,74.26
2024-05-09T11:30:24.252Z,74.35
2024-05-09T11:31:17.724Z,74.08
2024-05-09T11:32:17.495Z,75.96
2024-05-09T11:33:17.570Z,73.95
2024-05-09T11:34:17.461Z,75.80
2024-05-09T11:35:17.445Z,77.11
2024-05-09T11:36:17.374Z,75.63
2024-05-09T11:37:17.525Z,76.78
2024-05-09T11:38:17.337Z,77.08
2024-05-09T11:39:17.316Z,78.09
2024-05-09T11:40:25.110Z,78.06
2024-05-09T11:41:17.293Z,78.06
2024-05-09T11:42:17.242Z,76.95
2024-05-09T11:43:17.317Z,75.63
2024-05-09T11:44:17.194Z,75.90
2024-05-09T11:45:17.209Z,76.54
2024-05-09T11:46:17.380Z,75.70
2024-05-09T11:47:17.191Z,74.69
2024-05-09T11:48:17.191Z,76.91
2024-05-09T11:49:17.231Z,76.40
2024-05-09T11:50:26.747Z,77.98
2024-05-09T11:51:17.036Z,74.08
2024-05-09T11:52:17.147Z,75.80
2024-05-09T11:53:16.997Z,74.35
2024-05-09T11:54:16.966Z,75.67
2024-05-09T11:55:17.063Z,75.96
2024-05-09T11:56:16.935Z,75.80
2024-05-09T11:57:16.899Z,77.86
2024-05-09T11:58:17.152Z,77.45
2024-05-09T11:59:16.857Z,78.22
2024-05-09T12:00:24.858Z,77.86
2024-05-09T12:01:16.903Z,77.15
2024-05-09T12:02:17.149Z,77.35
2024-05-09T12:03:16.881Z,77.35
2024-05-09T12:04:17.016Z,78.56
2024-05-09T12:05:16.987Z,77.35
2024-05-09T12:06:16.898Z,78.09
2024-05-09T12:07:16.902Z,77.86
2024-05-09T12:08:16.745Z,77.75
2024-05-09T12:09:16.636Z,78.16
2024-05-09T12:10:19.881Z,75.63
2024-05-09T12:11:16.872Z,78.03
2024-05-09T12:12:16.569Z,76.95
2024-05-09T12:13:16.755Z,76.71
2024-05-09T12:14:16.510Z,75.96
2024-05-09T12:15:16.740Z,76.00
2024-05-09T12:16:16.799Z,75.84
2024-05-09T12:17:16.524Z,77.42
2024-05-09T12:18:16.591Z,76.47
2024-05-09T12:19:16.502Z,76.64
2024-05-09T12:20:21.592Z,77.50
2024-05-09T12:21:16.465Z,77.17
2024-05-09T12:22:16.520Z,72.84
2024-05-09T12:23:16.436Z,73.85
2024-05-09T12:24:18.559Z,73.45
2024-05-09T12:25:16.686Z,74.26
2024-05-09T12:26:16.235Z,73.68
2024-05-09T12:27:16.219Z,74.83
2024-05-09T12:28:16.445Z,75.23
2024-05-09T12:29:16.180Z,75.90
2024-05-09T12:30:24.429Z,76.71
2024-05-09T12:31:16.168Z,78.15
2024-05-09T12:32:16.178Z,75.66
2024-05-09T12:33:16.150Z,75.46
2024-05-09T12:34:16.109Z,75.32
2024-05-09T12:35:16.138Z,74.35
2024-05-09T12:36:16.010Z,69.79
2024-05-09T12:37:16.189Z,71.80
2024-05-09T12:38:15.965Z,70.86
2024-05-09T12:39:15.949Z,70.16
2024-05-09T12:40:23.069Z,69.62
2024-05-09T12:41:15.907Z,70.03
2024-05-09T12:42:26.420Z,69.22
2024-05-09T12:43:15.877Z,68.32
2024-05-09T12:44:15.864Z,69.12
2024-05-09T12:45:15.879Z,69.02
2024-05-09T12:46:15.826Z,70.79
2024-05-09T12:47:15.803Z,70.09
2024-05-09T12:48:15.857Z,67.79
2024-05-09T12:49:17.339Z,69.99
2024-05-09T12:50:21.979Z,68.38
2024-05-09T12:51:15.689Z,68.52
2024-05-09T12:52:15.774Z,68.38
2024-05-09T12:53:15.654Z,70.36
2024-05-09T12:54:15.622Z,69.18
2024-05-09T12:55:15.700Z,71.50
2024-05-09T12:56:15.578Z,70.06
2024-05-09T12:57:15.558Z,69.65